OOMS/MCT METAR and TAF weather

Enter ICAO airport designator
Station Type Date Time Source
OOMS METAR 2019/08/22 15:50 UTC NOAA

OOMS 221550Z 06009KT CAVOK 29/27 Q1002 NOSIG


Station Type Date Time Source
OOMS Decoded METAR 2019/08/22 15:50 UTC NOAA

Station name not available
Aug 22, 2019 - 11:50 AM EDT / 2019.08.22 1550 UTC
Wind: from the ENE (060 degrees) at 10 MPH (9 KT):0
Visibility: greater than 7 mile(s):0
Temperature: 84 F (29 C)
Dew Point: 80 F (27 C)
Relative Humidity: 88%
Pressure (altimeter): 29.59 in. Hg (1002 hPa)
ob: OOMS 221550Z 06009KT CAVOK 29/27 Q1002 NOSIG
cycle: 16

Station Type Date Time Source
OOMS TAF 2019/08/22 12:03 UTC NOAA

TAF TAF OOMS 221100Z 2212/2318 06012KT 9000 NSC
BECMG 2218/2220 VRB02KT PROB30
TEMPO 2222/2302 4000 BR BKN010
BECMG 2306/2308 04012KT

Example: see airport list